Terminal Aerodrome Forecast
Issued by NWS Pocatello, ID

Current Version | Previous Version | Text Only | Print | Product List | Glossary On
Versions: 1 2 3 4 5 6 7 8 9 10 11 12 13 14 15 16 17 18 19
000
FTUS45 KPIH 262145 CCA
TAFBYI
TAF COR
KBYI 262145Z 2622/2718 26010KT 6SM -SHRA SCT025 BKN040 OVC140
      TEMPO 2701/2703 VRB15G30KT 4SM SHRA SCT008 BKN025 OVC040
     FM270400 25017G27KT P6SM VCSH SCT020 OVC040=

USA.gov is the U.S. government's official web portal to all federal, state and local government web resources and services.